Time;durP1;ratioP1;P1;durP2;ratioP2;P2;SDS_P1;SDS_P2;PMS_P1;PMS_P2;Temp;Humidity;BMP_temperature;BMP_pressure;BME280_temperature;BME280_humidity;BME280_pressure;Samples;Min_cycle;Max_cycle;Signal;HPM_P1;HPM_P2
2020/12/08 00:01:11;;;;;;;14.83;6.40;;;;;;;-6.78;63.74;100743.64;1712001;84;21171;-75
2020/12/08 00:03:38;;;;;;;15.03;6.85;;;;;;;-6.80;63.86;100749.20;1698934;84;21325;-76
2020/12/08 00:06:05;;;;;;;14.38;7.33;;;;;;;-6.85;64.02;100745.26;1699129;84;21694;-76
2020/12/08 00:08:33;;;;;;;11.95;5.95;;;;;;;-6.86;63.98;100748.66;1705863;83;21324;-75
2020/12/08 00:11:01;;;;;;;13.70;7.12;;;;;;;-6.85;64.08;100733.69;1722905;83;21603;-75
2020/12/08 00:13:29;;;;;;;15.63;7.28;;;;;;;-6.83;64.12;100733.70;1722994;83;21314;-75
2020/12/08 00:15:56;;;;;;;16.70;7.10;;;;;;;-6.87;64.24;100744.36;1722987;83;21313;-74
2020/12/08 00:18:24;;;;;;;15.88;7.92;;;;;;;-6.84;64.31;100745.71;1718519;83;21119;-75
2020/12/08 00:20:52;;;;;;;14.40;7.28;;;;;;;-6.81;64.22;100747.03;1721522;83;21321;-75
2020/12/08 00:23:21;;;;;;;15.70;7.15;;;;;;;-6.80;64.25;100751.78;1723158;83;21559;-75
2020/12/08 00:25:48;;;;;;;15.03;7.62;;;;;;;-6.82;63.78;100744.02;1723076;83;21317;-74
2020/12/08 00:28:15;;;;;;;12.85;7.22;;;;;;;-6.84;63.88;100737.99;1723173;83;21191;-75
2020/12/08 00:30:43;;;;;;;13.15;7.15;;;;;;;-6.82;63.87;100734.16;1705966;83;21613;-75
2020/12/08 00:33:10;;;;;;;15.38;8.28;;;;;;;-6.85;63.95;100741.40;1702863;83;21928;-75
2020/12/08 00:35:37;;;;;;;15.45;6.40;;;;;;;-6.95;64.03;100740.80;1702720;84;21605;-75
2020/12/08 00:38:05;;;;;;;12.65;7.37;;;;;;;-6.93;64.14;100730.98;1702999;84;21916;-75
2020/12/08 00:40:32;;;;;;;14.15;7.25;;;;;;;-6.91;64.13;100742.58;1708550;83;21305;-75
2020/12/08 00:42:59;;;;;;;16.82;7.53;;;;;;;-6.93;64.15;100735.24;1722846;83;21179;-75
2020/12/08 00:45:28;;;;;;;16.27;7.62;;;;;;;-6.92;64.15;100745.98;1722775;83;21208;-75
2020/12/08 00:47:55;;;;;;;16.27;8.55;;;;;;;-6.94;64.10;100729.25;1722906;83;21182;-75
2020/12/08 00:50:23;;;;;;;18.07;8.05;;;;;;;-7.00;64.11;100718.00;1722378;83;21321;-74
2020/12/08 00:52:51;;;;;;;16.45;7.72;;;;;;;-6.99;64.26;100719.73;1722989;83;21131;-75
2020/12/08 00:55:18;;;;;;;16.75;8.45;;;;;;;-6.96;64.16;100721.06;1721927;82;21206;-75
2020/12/08 00:57:47;;;;;;;16.23;8.33;;;;;;;-7.05;64.21;100741.48;1723226;83;21163;-75
2020/12/08 01:00:17;;;;;;;14.83;7.15;;;;;;;-7.09;64.36;100718.70;1722754;83;21285;-75
2020/12/08 01:02:45;;;;;;;15.80;8.33;;;;;;;-7.05;64.50;100710.63;1708206;83;21213;-75
2020/12/08 01:05:14;;;;;;;16.65;7.55;;;;;;;-7.08;64.56;100716.15;1677804;84;21300;-75
2020/12/08 01:07:43;;;;;;;15.90;8.33;;;;;;;-7.11;64.63;100707.52;1675599;84;21372;-75
2020/12/08 01:10:12;;;;;;;16.85;8.03;;;;;;;-7.12;64.84;100723.38;1697246;84;21202;-75
2020/12/08 01:12:40;;;;;;;19.32;8.58;;;;;;;-7.16;64.83;100721.59;1713317;83;21301;-75
2020/12/08 01:15:08;;;;;;;14.75;7.62;;;;;;;-7.16;64.87;100714.28;1719970;83;21222;-75
2020/12/08 01:17:35;;;;;;;15.55;7.70;;;;;;;-7.12;64.99;100713.52;1720185;83;21732;-75
2020/12/08 01:20:04;;;;;;;17.73;7.60;;;;;;;-7.15;64.96;100723.30;1689443;83;21162;-75
2020/12/08 01:22:31;;;;;;;15.10;7.05;;;;;;;-7.16;65.05;100726.73;1699608;83;21163;-75
2020/12/08 01:24:59;;;;;;;16.65;7.80;;;;;;;-7.16;65.03;100710.42;1698328;84;21174;-75
2020/12/08 01:27:33;;;;;;;18.57;8.10;;;;;;;-7.16;65.15;100716.45;1698416;84;21301;-75
2020/12/08 01:30:03;;;;;;;15.30;7.53;;;;;;;-7.17;65.35;100703.55;1698288;84;21619;-75
2020/12/08 01:32:31;;;;;;;15.55;8.58;;;;;;;-7.16;65.18;100711.71;1704069;83;21287;-75
2020/12/08 01:34:59;;;;;;;16.55;7.60;;;;;;;-7.19;65.27;100720.23;1719868;83;21363;-75
2020/12/08 01:37:27;;;;;;;23.15;8.25;;;;;;;-7.22;65.38;100700.91;1693434;83;21183;-74
2020/12/08 01:39:55;;;;;;;16.00;8.00;;;;;;;-7.18;65.31;100701.41;1720079;83;21198;-75
2020/12/08 01:42:22;;;;;;;16.57;7.97;;;;;;;-7.18;65.39;100702.69;1712501;82;21317;-75
2020/12/08 01:44:50;;;;;;;16.75;7.60;;;;;;;-7.18;65.37;100711.69;1698189;84;21206;-75
2020/12/08 01:47:18;;;;;;;16.80;8.18;;;;;;;-7.18;65.31;100715.55;1698402;84;21491;-75
2020/12/08 01:49:46;;;;;;;22.15;8.35;;;;;;;-7.22;65.59;100724.45;1698161;84;21170;-75
2020/12/08 01:52:15;;;;;;;16.57;7.80;;;;;;;-7.27;65.76;100715.39;1672221;84;21177;-75
2020/12/08 01:54:57;;;;;;;16.10;7.53;;;;;;;-7.28;65.93;100728.64;1933027;73;23064;-74
2020/12/08 01:57:27;;;;;;;14.20;7.12;;;;;;;-7.29;65.88;100722.20;1860694;74;21141;-74
2020/12/08 01:59:56;;;;;;;16.85;7.92;;;;;;;-7.27;65.95;100730.81;1859536;77;21598;-74
2020/12/08 02:02:25;;;;;;;14.93;8.03;;;;;;;-7.19;65.91;100734.38;1812271;78;21270;-74
2020/12/08 02:04:53;;;;;;;20.35;7.80;;;;;;;-7.21;65.85;100736.08;1768952;80;21610;-74
2020/12/08 02:07:21;;;;;;;18.20;8.50;;;;;;;-7.20;65.70;100735.20;1779154;80;21164;-75
2020/12/08 02:09:48;;;;;;;13.83;8.70;;;;;;;-7.22;65.75;100733.45;1769695;81;21189;-74
2020/12/08 02:12:18;;;;;;;18.32;8.13;;;;;;;-7.17;65.65;100740.42;1782798;79;21612;-74
2020/12/08 02:14:46;;;;;;;17.17;7.25;;;;;;;-7.19;66.06;100731.80;1736797;81;21624;-74
2020/12/08 02:17:14;;;;;;;14.33;7.08;;;;;;;-7.23;66.12;100748.02;1751873;82;21206;-75
2020/12/08 02:19:44;;;;;;;14.33;7.35;;;;;;;-7.23;66.18;100739.02;1806740;79;21294;-74
2020/12/08 02:22:12;;;;;;;15.48;8.50;;;;;;;-7.27;66.54;100746.23;1827824;77;21590;-74
2020/12/08 02:24:39;;;;;;;15.63;6.83;;;;;;;-7.21;66.32;100748.04;1840675;77;21265;-74
2020/12/08 02:27:07;;;;;;;15.13;8.43;;;;;;;-7.17;66.29;100726.28;1800329;79;21164;-74
2020/12/08 02:29:34;;;;;;;16.42;8.43;;;;;;;-7.14;66.10;100731.47;1839779;78;21305;-74
2020/12/08 02:32:02;;;;;;;14.58;7.03;;;;;;;-7.17;66.25;100725.40;1787829;79;21194;-74
2020/12/08 02:34:29;;;;;;;15.25;8.08;;;;;;;-7.13;66.21;100723.35;1834907;78;21253;-74
2020/12/08 02:36:57;;;;;;;14.13;7.92;;;;;;;-7.15;66.30;100718.59;1814081;79;21135;-75
2020/12/08 02:39:27;;;;;;;16.55;8.63;;;;;;;-7.06;66.17;100720.46;1813214;79;21621;-74
2020/12/08 02:41:55;;;;;;;13.90;7.30;;;;;;;-7.03;66.16;100731.67;1802420;79;21595;-74
2020/12/08 02:44:23;;;;;;;18.50;8.53;;;;;;;-7.05;66.04;100731.20;1792719;79;21152;-74
2020/12/08 02:46:52;;;;;;;15.23;8.08;;;;;;;-7.04;65.98;100726.08;1824492;78;21163;-75
2020/12/08 02:49:20;;;;;;;14.20;7.65;;;;;;;-7.08;66.07;100727.72;1792383;79;21187;-74
2020/12/08 02:51:48;;;;;;;19.25;7.70;;;;;;;-7.02;66.05;100722.23;1766699;81;21177;-74
2020/12/08 02:54:15;;;;;;;18.95;8.73;;;;;;;-7.15;66.42;100713.02;1845962;76;21265;-74
2020/12/08 02:56:43;;;;;;;16.45;9.20;;;;;;;-7.19;66.66;100726.66;1851605;77;21131;-74
2020/12/08 02:59:12;;;;;;;17.70;8.15;;;;;;;-7.15;66.61;100715.59;1849721;76;21178;-74
2020/12/08 03:01:41;;;;;;;18.50;7.75;;;;;;;-7.10;66.54;100708.85;1848789;77;21147;-75
2020/12/08 03:04:08;;;;;;;16.85;8.10;;;;;;;-7.09;66.63;100714.84;1848656;77;21575;-75
2020/12/08 03:06:41;;;;;;;13.98;7.75;;;;;;;-7.13;66.91;100713.92;1843856;77;21293;-75
2020/12/08 03:09:10;;;;;;;18.27;7.90;;;;;;;-7.11;66.99;100712.66;1836445;78;21154;-75
2020/12/08 03:11:38;;;;;;;17.85;7.92;;;;;;;-7.12;67.06;100707.95;1836378;78;21591;-75
2020/12/08 03:14:10;;;;;;;15.55;7.75;;;;;;;-7.05;66.84;100729.91;1787393;78;21193;-75
2020/12/08 03:16:38;;;;;;;16.15;8.30;;;;;;;-7.11;66.84;100719.97;1812336;79;21596;-75
2020/12/08 03:19:06;;;;;;;17.62;8.50;;;;;;;-7.08;66.93;100710.16;1813243;79;21310;-75
2020/12/08 03:21:35;;;;;;;17.70;8.20;;;;;;;-7.06;66.83;100714.03;1813273;79;21647;-75
2020/12/08 03:24:05;;;;;;;17.20;7.55;;;;;;;-7.09;66.95;100719.98;1795942;79;21093;-75
2020/12/08 03:26:32;;;;;;;16.42;8.50;;;;;;;-7.13;67.04;100708.78;1805676;79;21139;-75
2020/12/08 03:29:00;;;;;;;15.75;7.65;;;;;;;-7.11;67.14;100714.83;1813360;79;21179;-75
2020/12/08 03:31:28;;;;;;;18.27;8.60;;;;;;;-7.10;67.18;100715.68;1813439;79;21309;-75
2020/12/08 03:33:56;;;;;;;17.50;8.05;;;;;;;-7.06;67.28;100701.17;1813254;79;21687;-75
2020/12/08 03:36:23;;;;;;;18.00;8.08;;;;;;;-7.03;67.29;100698.64;1795318;79;21192;-75
2020/12/08 03:38:50;;;;;;;17.37;9.03;;;;;;;-7.02;67.34;100695.23;1785945;80;21141;-75
2020/12/08 03:41:21;;;;;;;16.52;8.20;;;;;;;-7.02;67.43;100692.27;1785953;80;21303;-75
2020/12/08 03:43:50;;;;;;;16.42;8.30;;;;;;;-7.00;67.50;100693.57;1785732;80;21177;-75
2020/12/08 03:46:20;;;;;;;18.52;9.00;;;;;;;-6.97;67.62;100689.75;1785852;80;21314;-75
2020/12/08 03:48:48;;;;;;;17.02;7.90;;;;;;;-6.99;67.78;100693.59;1786073;79;21637;-75
2020/12/08 03:51:18;;;;;;;15.38;8.40;;;;;;;-6.98;68.05;100699.59;1785929;80;21176;-75
2020/12/08 03:53:45;;;;;;;20.82;10.20;;;;;;;-6.91;67.97;100697.57;1782562;80;21169;-75
2020/12/08 03:56:17;;;;;;;19.67;9.08;;;;;;;-6.95;68.20;100702.23;1774560;81;21764;-75
2020/12/08 03:58:45;;;;;;;20.35;9.30;;;;;;;-6.92;68.24;100700.98;1770956;81;21181;-75
2020/12/08 04:01:16;;;;;;;29.67;9.63;;;;;;;-6.92;68.28;100698.41;1763321;81;21792;-75
2020/12/08 04:03:46;;;;;;;17.00;7.70;;;;;;;-6.95;68.30;100689.36;1763199;80;21598;-75
2020/12/08 04:06:14;;;;;;;18.90;9.35;;;;;;;-6.88;68.19;100684.75;1811457;79;21289;-75
2020/12/08 04:08:45;;;;;;;18.92;8.28;;;;;;;-6.86;68.23;100679.66;1811045;79;21150;-75
2020/12/08 04:11:15;;;;;;;17.37;9.05;;;;;;;-6.86;68.17;100681.79;1811047;79;21269;-75
2020/12/08 04:13:44;;;;;;;14.85;8.50;;;;;;;-6.90;68.21;100683.88;1811252;79;21131;-75
2020/12/08 04:16:14;;;;;;;15.90;8.60;;;;;;;-6.86;68.23;100671.50;1810971;79;21570;-75
2020/12/08 04:18:43;;;;;;;17.65;9.58;;;;;;;-6.87;68.27;100671.05;1812640;79;21084;-76
2020/12/08 04:21:10;;;;;;;17.95;9.13;;;;;;;-6.84;68.23;100682.69;1811047;79;21132;-76
2020/12/08 04:23:38;;;;;;;17.65;8.33;;;;;;;-6.81;68.17;100676.30;1810786;79;21148;-76
2020/12/08 04:26:10;;;;;;;17.35;8.60;;;;;;;-6.85;68.31;100672.35;1810668;79;21262;-76
2020/12/08 04:28:38;;;;;;;19.20;8.60;;;;;;;-6.86;68.45;100671.50;1810793;79;21151;-76
2020/12/08 04:31:16;;;;;;;22.50;8.95;;;;;;;-6.87;68.53;100666.34;1748139;82;21151;-76
2020/12/08 04:33:43;;;;;;;16.67;8.10;;;;;;;-6.88;68.52;100670.59;1748178;81;21288;-76
2020/12/08 04:36:15;;;;;;;17.55;8.10;;;;;;;-6.88;68.55;100662.88;1748471;81;21586;-76
2020/12/08 04:38:43;;;;;;;20.12;8.80;;;;;;;-6.91;68.70;100660.28;1704198;84;21299;-76
2020/12/08 04:41:11;;;;;;;16.85;8.73;;;;;;;-6.92;68.75;100671.00;1715614;81;21194;-76
2020/12/08 04:43:40;;;;;;;17.87;8.65;;;;;;;-6.89;68.78;100665.44;1763708;81;21213;-75
2020/12/08 04:46:10;;;;;;;16.10;8.75;;;;;;;-6.92;68.84;100675.26;1763473;80;21146;-75
2020/12/08 04:48:37;;;;;;;15.55;8.45;;;;;;;-6.99;68.85;100681.16;1826819;77;21103;-76
2020/12/08 04:51:05;;;;;;;20.60;9.55;;;;;;;-6.96;68.77;100669.20;1822320;77;21103;-75
2020/12/08 04:53:33;;;;;;;17.37;9.28;;;;;;;-6.95;68.83;100682.50;1824626;77;21666;-75
2020/12/08 04:56:00;;;;;;;18.75;8.30;;;;;;;-6.95;68.88;100677.80;1808229;79;21176;-75
2020/12/08 04:58:28;;;;;;;18.85;9.03;;;;;;;-7.01;69.14;100671.26;1822237;78;21179;-75
2020/12/08 05:00:55;;;;;;;17.00;8.43;;;;;;;-7.05;69.26;100670.34;1808322;79;21281;-76
2020/12/08 05:03:27;;;;;;;17.55;8.75;;;;;;;-7.08;69.45;100685.73;1822236;79;21604;-75
2020/12/08 05:05:54;;;;;;;19.10;8.93;;;;;;;-7.05;69.38;100680.63;1807936;79;21190;-75
2020/12/08 05:08:22;;;;;;;18.57;9.03;;;;;;;-7.04;69.36;100675.08;1821898;79;21151;-75
2020/12/08 05:10:49;;;;;;;19.15;8.23;;;;;;;-7.06;69.57;100681.89;1821674;79;21183;-75
2020/12/08 05:14:23;;;;;;;18.10;8.03;;;;;;;-7.08;69.47;100672.44;1821591;79;23146;-76
2020/12/08 05:17:03;;;;;;;20.08;9.08;;;;;;;-7.10;69.34;100678.00;1794862;80;21191;-74
2020/12/08 05:19:30;;;;;;;17.52;8.95;;;;;;;-7.13;69.40;100672.78;1793092;78;21207;-74
2020/12/08 05:21:59;;;;;;;19.73;9.05;;;;;;;-7.17;69.52;100682.98;1721700;83;21137;-75
2020/12/08 05:24:33;;;;;;;16.15;8.55;;;;;;;-7.13;69.53;100674.50;1731819;81;21208;-76
2020/12/08 05:27:04;;;;;;;21.25;10.05;;;;;;;-7.13;69.59;100677.92;1738316;81;21126;-75
2020/12/08 05:29:33;;;;;;;22.13;9.65;;;;;;;-7.13;69.54;100675.36;1713806;83;21167;-75
2020/12/08 05:32:29;;;;;;;17.42;9.48;;;;;;;-7.13;69.62;100664.22;1752766;81;21163;-76
2020/12/08 05:34:57;;;;;;;16.67;8.78;;;;;;;-7.12;69.51;100664.23;1707551;81;21292;-74
2020/12/08 05:37:24;;;;;;;19.35;8.83;;;;;;;-7.13;69.54;100671.94;1711558;83;21154;-74
2020/12/08 05:39:51;;;;;;;21.05;10.45;;;;;;;-7.17;69.61;100663.70;1732555;81;21292;-74
2020/12/08 05:42:20;;;;;;;19.48;8.75;;;;;;;-7.19;69.69;100671.83;1724754;80;21648;-74
2020/12/08 05:44:49;;;;;;;16.90;8.25;;;;;;;-7.17;69.60;100674.87;1750640;82;21299;-75
2020/12/08 05:47:19;;;;;;;19.98;9.93;;;;;;;-7.20;69.65;100668.37;1731842;81;21176;-74
2020/12/08 05:52:36;;;;;;;18.82;8.28;;;;;;;-7.22;69.85;100667.90;1818524;77;23347;-73
2020/12/08 05:55:19;;;;;;;22.70;9.80;;;;;;;-7.27;69.87;100676.84;1813989;78;21547;-73
2020/12/08 05:57:46;;;;;;;16.55;8.53;;;;;;;-7.27;69.94;100675.55;1762911;80;21162;-75
2020/12/08 06:00:26;;;;;;;17.77;8.98;;;;;;;-7.29;70.04;100683.64;1747122;80;21163;-74
2020/12/08 06:03:11;;;;;;;22.70;11.05;;;;;;;-7.27;69.93;100678.13;1769193;80;21182;-74
2020/12/08 06:05:39;;;;;;;21.93;10.50;;;;;;;-7.25;69.90;100681.16;1758902;81;21638;-74
2020/12/08 06:08:20;;;;;;;21.30;11.05;;;;;;;-7.33;70.03;100690.86;1757815;81;21305;-74
2020/12/08 06:10:53;;;;;;;18.12;9.23;;;;;;;-7.26;69.94;100690.14;1757737;81;21131;-74
2020/12/08 06:13:30;;;;;;;19.65;9.23;;;;;;;-7.31;70.15;100708.47;1724597;83;21309;-74
2020/12/08 06:16:01;;;;;;;18.17;9.83;;;;;;;-7.34;70.17;100695.14;1698674;84;21591;-74
2020/12/08 06:18:30;;;;;;;16.37;7.97;;;;;;;-7.41;70.28;100703.14;1733337;81;21111;-74
2020/12/08 06:20:58;;;;;;;16.55;9.18;;;;;;;-7.36;70.31;100694.67;1754043;81;21186;-74
2020/12/08 06:23:25;;;;;;;21.95;9.88;;;;;;;-7.39;70.33;100695.48;1743080;81;21119;-74
2020/12/08 06:26:03;;;;;;;22.95;9.25;;;;;;;-7.42;70.36;100695.41;1757660;81;21757;-74
2020/12/08 06:28:30;;;;;;;22.25;8.83;;;;;;;-7.38;70.44;100696.34;1746548;81;21155;-74
2020/12/08 06:31:05;;;;;;;18.02;8.65;;;;;;;-7.35;70.44;100697.66;1708538;81;21152;-74
2020/12/08 06:33:50;;;;;;;22.17;8.85;;;;;;;-7.40;70.52;100695.03;1732188;81;21166;-76
2020/12/08 06:36:18;;;;;;;20.27;10.23;;;;;;;-7.34;70.55;100683.98;1730449;83;21151;-74
2020/12/08 06:39:07;;;;;;;19.10;8.75;;;;;;;-7.33;70.71;100689.14;1709642;81;21758;-74
2020/12/08 06:41:39;;;;;;;16.65;8.05;;;;;;;-7.36;70.79;100690.38;1727546;81;21186;-74
2020/12/08 06:44:12;;;;;;;50.28;16.37;;;;;;;-7.29;70.59;100691.35;1756086;81;21183;-74
2020/12/08 06:46:58;;;;;;;19.17;9.38;;;;;;;-7.27;70.76;100697.40;1757836;81;21131;-74
2020/12/08 06:49:26;;;;;;;17.45;8.93;;;;;;;-7.28;70.73;100696.52;1757294;81;21780;-74
2020/12/08 06:51:56;;;;;;;20.30;9.30;;;;;;;-7.22;70.58;100692.32;1725073;81;21159;-74
2020/12/08 06:54:24;;;;;;;22.22;10.18;;;;;;;-7.30;70.56;100690.50;1686930;84;21315;-74
2020/12/08 06:56:53;;;;;;;23.27;10.43;;;;;;;-7.26;70.55;100696.56;1715322;82;21132;-74
2020/12/08 06:59:24;;;;;;;25.57;10.90;;;;;;;-7.26;70.58;100694.00;1723191;82;21639;-74
2020/12/08 07:01:56;;;;;;;22.85;10.58;;;;;;;-7.26;70.46;100690.14;1735601;80;21183;-75
2020/12/08 07:04:25;;;;;;;20.75;10.63;;;;;;;-7.17;70.53;100677.84;1741631;80;21150;-74
2020/12/08 07:06:53;;;;;;;19.00;8.78;;;;;;;-7.17;70.27;100679.12;1735958;80;21286;-75
2020/12/08 07:09:21;;;;;;;20.52;9.85;;;;;;;-7.17;70.35;100683.87;1741382;80;21627;-75
2020/12/08 07:11:48;;;;;;;19.98;10.23;;;;;;;-7.20;70.06;100687.65;1762966;80;21163;-75
2020/12/08 07:14:15;;;;;;;20.50;9.05;;;;;;;-7.17;70.47;100688.13;1683901;82;21620;-74
2020/12/08 07:16:42;;;;;;;17.55;8.28;;;;;;;-7.15;70.20;100700.16;1735416;81;21301;-75
2020/12/08 07:19:09;;;;;;;13.70;7.55;;;;;;;-7.14;70.16;100692.90;1755183;80;21195;-74
2020/12/08 07:21:36;;;;;;;17.80;8.45;;;;;;;-7.13;69.97;100695.92;1738505;80;21302;-75
2020/12/08 07:24:06;;;;;;;22.87;10.45;;;;;;;-7.13;70.29;100686.08;1755518;80;21224;-74
2020/12/08 07:26:33;;;;;;;17.90;9.38;;;;;;;-7.14;70.22;100701.90;1741644;81;21176;-75
2020/12/08 07:29:00;;;;;;;16.97;8.33;;;;;;;-7.10;69.65;100692.54;1712620;83;21171;-75
2020/12/08 07:31:31;;;;;;;17.35;9.03;;;;;;;-7.10;69.52;100701.14;1749342;81;21669;-75
2020/12/08 07:33:59;;;;;;;18.85;8.35;;;;;;;-7.08;69.64;100701.16;1731050;80;21261;-75
2020/12/08 07:36:29;;;;;;;30.50;9.95;;;;;;;-7.05;69.85;100696.48;1727315;80;21187;-75
2020/12/08 07:39:00;;;;;;;20.75;8.85;;;;;;;-7.02;70.02;100704.23;1738866;80;21144;-75
2020/12/08 07:41:28;;;;;;;23.73;9.90;;;;;;;-6.95;69.48;100702.23;1730692;80;21112;-74
2020/12/08 07:43:58;;;;;;;21.02;8.85;;;;;;;-6.86;69.06;100699.80;1738300;80;21465;-74
2020/12/08 07:46:30;;;;;;;19.10;9.48;;;;;;;-6.82;68.80;100690.42;1757324;81;21168;-73
2020/12/08 07:49:08;;;;;;;29.90;10.35;;;;;;;-6.82;69.37;100714.43;1749602;80;21651;-73
2020/12/08 07:51:37;;;;;;;19.52;9.48;;;;;;;-6.84;69.51;100698.13;1748301;81;21215;-73
2020/12/08 07:54:05;;;;;;;20.62;9.45;;;;;;;-6.82;69.32;100692.56;1753033;80;21184;-73
2020/12/08 07:56:34;;;;;;;16.10;9.85;;;;;;;-6.83;68.90;100699.86;1760187;80;21292;-73
2020/12/08 07:59:04;;;;;;;21.73;8.58;;;;;;;-6.81;68.66;100698.16;1729693;82;21169;-73
2020/12/08 08:01:39;;;;;;;18.52;9.05;;;;;;;-6.81;68.66;100685.30;1757206;81;21719;-74
2020/12/08 08:04:09;;;;;;;18.62;8.25;;;;;;;-6.76;68.27;100695.67;1726800;80;21183;-73
2020/12/08 08:06:36;;;;;;;20.40;8.75;;;;;;;-6.77;68.66;100687.07;1754996;81;21576;-73
2020/12/08 08:11:47;;;;;;;19.05;10.32;;;;;;;-6.75;68.31;100693.12;1814720;78;22591;-72
2020/12/08 08:14:14;;;;;;;19.02;9.55;;;;;;;-6.78;68.17;100703.38;1812499;78;21167;-72
2020/12/08 08:16:41;;;;;;;19.40;9.00;;;;;;;-6.73;68.13;100694.86;1736432;81;21115;-73
2020/12/08 08:19:09;;;;;;;22.80;10.68;;;;;;;-6.66;68.46;100694.09;1701276;83;21123;-73
2020/12/08 08:21:36;;;;;;;19.73;9.45;;;;;;;-6.57;68.07;100695.53;1754641;80;21581;-72
2020/12/08 08:24:03;;;;;;;19.25;9.28;;;;;;;-6.56;67.39;100694.66;1745496;81;21159;-73
2020/12/08 08:26:30;;;;;;;21.65;10.43;;;;;;;-6.60;67.39;100682.61;1723448;82;21591;-73
2020/12/08 08:28:58;;;;;;;20.35;9.30;;;;;;;-6.56;67.90;100683.08;1720282;82;21183;-74
2020/12/08 08:31:25;;;;;;;23.50;10.95;;;;;;;-6.55;68.09;100682.69;1699398;83;21235;-73
2020/12/08 08:33:52;;;;;;;22.85;11.25;;;;;;;-6.47;67.98;100688.39;1730706;81;21135;-73
2020/12/08 08:36:20;;;;;;;19.10;9.25;;;;;;;-6.49;67.73;100691.78;1727357;81;21170;-73
2020/12/08 08:38:47;;;;;;;21.12;9.88;;;;;;;-6.44;67.02;100687.13;1718541;81;21146;-73
2020/12/08 08:41:15;;;;;;;20.77;10.80;;;;;;;-6.39;67.23;100683.75;1724287;82;21215;-73
2020/12/08 08:43:42;;;;;;;18.55;9.73;;;;;;;-6.42;66.83;100682.88;1725091;82;21157;-73
2020/12/08 08:46:10;;;;;;;18.35;9.20;;;;;;;-6.38;66.83;100668.75;1736669;81;21729;-73
2020/12/08 08:48:37;;;;;;;17.67;8.45;;;;;;;-6.36;66.96;100674.80;1735381;81;21142;-73
2020/12/08 08:51:07;;;;;;;18.87;10.48;;;;;;;-6.31;67.00;100668.86;1717534;82;21752;-73
2020/12/08 08:53:34;;;;;;;19.45;8.83;;;;;;;-6.29;66.81;100664.61;1721490;83;21198;-76
2020/12/08 08:56:01;;;;;;;17.00;9.63;;;;;;;-6.24;66.80;100671.08;1706072;83;21204;-75
2020/12/08 08:58:28;;;;;;;23.87;10.03;;;;;;;-6.20;66.33;100672.88;1694654;84;21182;-73
2020/12/08 09:00:57;;;;;;;20.82;10.20;;;;;;;-6.21;66.12;100664.70;1693980;84;21135;-74
2020/12/08 09:03:25;;;;;;;18.57;9.45;;;;;;;-6.22;65.96;100669.84;1692785;84;21668;-74
2020/12/08 09:05:53;;;;;;;19.87;9.75;;;;;;;-6.24;65.60;100665.08;1700149;84;21707;-73
2020/12/08 09:08:24;;;;;;;20.62;10.05;;;;;;;-6.25;65.97;100669.38;1690071;84;21153;-73
2020/12/08 09:10:51;;;;;;;15.93;7.83;;;;;;;-6.20;66.33;100669.42;1679688;85;21739;-73
2020/12/08 09:13:18;;;;;;;29.45;14.50;;;;;;;-6.16;66.34;100664.34;1698844;83;21621;-73
2020/12/08 09:15:46;;;;;;;17.85;8.85;;;;;;;-6.08;66.72;100670.02;1704232;82;21183;-73
2020/12/08 09:18:13;;;;;;;20.08;9.03;;;;;;;-6.07;66.02;100666.58;1709540;82;21186;-73
2020/12/08 09:20:41;;;;;;;17.90;9.68;;;;;;;-5.96;66.11;100663.68;1735818;81;21175;-74
2020/12/08 09:23:08;;;;;;;16.37;8.33;;;;;;;-5.95;65.53;100670.13;1730115;81;21195;-74
2020/12/08 09:25:36;;;;;;;17.10;9.20;;;;;;;-5.91;65.76;100662.02;1735243;81;21174;-73
2020/12/08 09:28:03;;;;;;;17.12;9.00;;;;;;;-5.91;66.15;100662.02;1721153;82;67256;-74
2020/12/08 09:30:30;;;;;;;19.20;9.93;;;;;;;-5.84;65.78;100661.69;1722954;81;21182;-82
2020/12/08 09:32:57;;;;;;;15.70;8.73;;;;;;;-5.82;65.13;100658.28;1724455;81;21214;-79
2020/12/08 09:35:24;;;;;;;19.00;8.73;;;;;;;-5.81;64.56;100665.14;1702975;83;21301;-78
2020/12/08 09:37:51;;;;;;;15.20;8.53;;;;;;;-5.79;64.64;100655.73;1712982;81;21638;-81
2020/12/08 09:40:19;;;;;;;23.50;8.90;;;;;;;-5.79;64.85;100659.59;1651232;86;21190;-81
2020/12/08 09:42:47;;;;;;;17.12;9.30;;;;;;;-5.77;65.11;100655.73;1674570;83;21641;-82
2020/12/08 09:45:15;;;;;;;15.95;8.28;;;;;;;-5.78;64.72;100657.47;1678127;84;21647;-84
2020/12/08 09:47:42;;;;;;;19.32;7.72;;;;;;;-5.73;65.08;100661.80;1719021;81;21178;-82
2020/12/08 09:50:10;;;;;;;19.37;8.88;;;;;;;-5.70;65.05;100655.38;1729940;81;21575;-82
2020/12/08 09:52:38;;;;;;;17.45;8.38;;;;;;;-5.74;65.44;100666.09;1699123;83;21673;-82
2020/12/08 09:55:06;;;;;;;20.12;9.18;;;;;;;-5.69;65.41;100658.00;1679874;83;21614;-82
2020/12/08 09:57:33;;;;;;;15.10;7.85;;;;;;;-5.72;65.16;100654.52;1697589;83;21166;-82
2020/12/08 10:00:00;;;;;;;15.25;8.18;;;;;;;-5.68;66.06;100653.69;1639316;86;21315;-82
2020/12/08 10:02:28;;;;;;;18.45;9.80;;;;;;;-5.65;65.88;100657.17;1661861;86;21182;-82
2020/12/08 10:04:55;;;;;;;19.20;8.50;;;;;;;-5.60;66.33;100672.66;1658632;84;21200;-83
2020/12/08 10:07:23;;;;;;;15.95;8.38;;;;;;;-5.56;66.82;100658.98;1663061;84;21177;-81
2020/12/08 10:09:51;;;;;;;20.82;8.73;;;;;;;-5.50;66.38;100666.78;1648915;84;21219;-82
2020/12/08 10:12:18;;;;;;;20.12;8.93;;;;;;;-5.48;66.93;100668.08;1704882;83;21164;-82
2020/12/08 10:14:47;;;;;;;18.35;9.13;;;;;;;-5.43;66.95;100667.70;1633499;87;21184;-83
2020/12/08 10:17:15;;;;;;;19.62;8.68;;;;;;;-5.45;67.00;100652.62;1700275;83;21193;-82
2020/12/08 10:19:43;;;;;;;17.17;8.80;;;;;;;-5.45;66.96;100644.49;1675347;83;21654;-82
2020/12/08 10:22:12;;;;;;;20.12;7.97;;;;;;;-5.46;67.26;100662.09;1707759;83;21328;-82
2020/12/08 10:24:40;;;;;;;19.00;9.40;;;;;;;-5.47;67.15;100647.47;1651874;86;21209;-82
2020/12/08 10:27:07;;;;;;;18.70;8.98;;;;;;;-5.44;67.17;100649.21;1702095;83;21230;-81
2020/12/08 10:29:34;;;;;;;20.25;9.88;;;;;;;-5.48;67.18;100652.17;1672065;84;21618;-84
2020/12/08 10:32:01;;;;;;;19.50;9.05;;;;;;;-5.44;67.37;100654.37;1677235;84;21766;-85
2020/12/08 10:34:29;;;;;;;23.80;9.05;;;;;;;-5.43;66.96;100644.06;1680010;84;21757;-83
2020/12/08 10:36:56;;;;;;;19.92;9.55;;;;;;;-5.35;67.04;100652.30;1705421;84;21747;-86
2020/12/08 10:39:24;;;;;;;16.35;8.93;;;;;;;-5.35;66.70;100647.15;1694424;84;21330;-86
2020/12/08 10:41:56;;;;;;;18.77;8.23;;;;;;;-5.28;66.75;100645.08;1648718;87;21176;-86
2020/12/08 10:44:24;;;;;;;17.87;8.83;;;;;;;-5.25;66.24;100628.77;1689969;84;21144;-86
2020/12/08 10:46:52;;;;;;;17.87;9.08;;;;;;;-5.29;65.70;100635.61;1627579;87;21403;-86
2020/12/08 10:49:20;;;;;;;23.52;11.03;;;;;;;-5.32;65.84;100631.69;1667003;84;21190;-86
2020/12/08 10:51:48;;;;;;;20.72;11.38;;;;;;;-5.32;66.21;100632.98;1651095;87;21236;-86
2020/12/08 10:54:15;;;;;;;19.67;9.60;;;;;;;-5.34;66.11;100633.41;1663816;85;21139;-87
2020/12/08 10:56:42;;;;;;;21.37;10.28;;;;;;;-5.39;67.23;100633.80;1630864;86;21195;-86
2020/12/08 10:59:10;;;;;;;20.60;8.95;;;;;;;-5.36;67.41;100635.10;1651581;86;21707;-86
2020/12/08 11:01:39;;;;;;;19.25;9.13;;;;;;;-5.38;67.07;100638.08;1641871;87;21191;-86
2020/12/08 11:04:06;;;;;;;22.35;9.78;;;;;;;-5.31;66.63;100632.14;1651449;87;21172;-86
2020/12/08 11:06:34;;;;;;;20.45;10.10;;;;;;;-5.28;66.85;100632.18;1648085;87;21236;-86
2020/12/08 11:09:01;;;;;;;19.42;9.05;;;;;;;-5.27;65.86;100639.92;1648783;87;21171;-87
2020/12/08 11:11:32;;;;;;;21.68;9.80;;;;;;;-5.29;66.06;100638.19;1678583;84;21179;-86
2020/12/08 11:14:00;;;;;;;21.45;10.30;;;;;;;-5.27;66.38;100628.73;1706315;84;21680;-86
2020/12/08 11:16:27;;;;;;;21.10;9.93;;;;;;;-5.25;66.22;100639.93;1677388;84;21739;-87
2020/12/08 11:18:55;;;;;;;27.32;10.72;;;;;;;-5.25;66.41;100639.93;1699276;84;21667;-87
2020/12/08 11:21:31;;;;;;;19.85;9.85;;;;;;;-5.22;66.38;100629.63;1694060;84;21703;-86
2020/12/08 11:23:58;;;;;;;19.35;9.90;;;;;;;-5.23;66.26;100631.80;1668771;84;21508;-87
2020/12/08 11:26:25;;;;;;;29.12;11.40;;;;;;;-5.28;66.43;100636.05;1685214;84;21323;-85
2020/12/08 11:28:53;;;;;;;21.33;10.18;;;;;;;-5.28;66.40;100633.47;1697127;83;21337;-86
2020/12/08 11:31:20;;;;;;;23.55;10.63;;;;;;;-5.33;66.76;100626.09;1665691;85;21596;-84